Terminal Aerodrome Forecast
Issued by NWS Newport/Morehead City, NC

Home | Current Version | Previous Version | Text Only | Print | Product List | Glossary On
Versions: 1 2 3 4 5 6 7 8 9 10 11 12 13 14 15 16
000
FTUS42 KMHX 031726
TAFEWN
TAF
KEWN 031726Z 0318/0418 07005KT P6SM -RA SCT020 BKN100
     FM040300 04003KT P6SM VCSH BKN025
     FM040900 VRB03KT 5SM -SHRA BR OVC010
     FM041400 06006KT P6SM VCTS SCT010 BKN030CB=

USA.gov is the U.S. government's official web portal to all federal, state and local government web resources and services.